createdAt,value
2019-02-09T00:02:09.459Z,95154.41
2019-02-09T00:04:40.129Z,95160.16
2019-02-09T00:07:10.892Z,95158.12
2019-02-09T00:09:41.159Z,95147.14
2019-02-09T00:12:11.648Z,95155.12
2019-02-09T00:14:42.241Z,95155.27
2019-02-09T00:17:12.518Z,95155.33
2019-02-09T00:19:43.021Z,95150.44
2019-02-09T00:22:13.707Z,95156.52
2019-02-09T00:24:44.065Z,95151.70
2019-02-09T00:27:14.359Z,95153.31
2019-02-09T00:29:46.600Z,95157.22
2019-02-09T00:32:17.238Z,95147.41
2019-02-09T00:34:49.079Z,95148.41
2019-02-09T00:37:20.540Z,95149.14
2019-02-09T00:39:50.866Z,95146.88
2019-02-09T00:42:21.644Z,95140.55
2019-02-09T00:44:51.976Z,95147.66
2019-02-09T00:47:22.239Z,95138.66
2019-02-09T00:49:53.089Z,95130.78
2019-02-09T00:52:23.411Z,95129.47
2019-02-09T00:54:53.825Z,95133.66
2019-02-09T00:57:24.931Z,95134.22
2019-02-09T00:59:55.697Z,95133.71
2019-02-09T01:02:25.962Z,95129.11
2019-02-09T01:04:56.924Z,95130.25
2019-02-09T01:07:27.314Z,95133.23
2019-02-09T01:09:58.747Z,95123.33
2019-02-09T01:12:29.179Z,95134.10
2019-02-09T01:14:59.601Z,95131.91
2019-02-09T01:17:30.307Z,95129.69
2019-02-09T01:20:00.903Z,95125.88
2019-02-09T01:22:31.179Z,95122.20
2019-02-09T01:25:01.586Z,95113.07
2019-02-09T01:27:32.109Z,95121.41
2019-02-09T01:30:03.024Z,95116.24
2019-02-09T01:32:33.478Z,95117.25
2019-02-09T01:35:04.742Z,95109.27
2019-02-09T01:37:35.033Z,95107.34
2019-02-09T01:40:07.514Z,95105.27
2019-02-09T01:42:37.902Z,95112.48
2019-02-09T01:45:10.335Z,95104.79
2019-02-09T01:47:40.967Z,95104.97
2019-02-09T01:50:12.875Z,95103.51
2019-02-09T01:52:43.185Z,95104.80
2019-02-09T01:55:14.220Z,95103.67
2019-02-09T01:57:44.581Z,95104.33
2019-02-09T02:00:17.861Z,95099.34
2019-02-09T02:02:49.362Z,95103.67
2019-02-09T02:05:22.415Z,95108.14
2019-02-09T02:07:53.175Z,95101.56
2019-02-09T02:10:26.994Z,95102.03
2019-02-09T02:12:57.628Z,95100.94
2019-02-09T02:15:28.985Z,95099.33
2019-02-09T02:17:59.535Z,95111.18
2019-02-09T02:20:30.703Z,95095.48
2019-02-09T02:23:01.081Z,95100.13
2019-02-09T02:25:31.375Z,95100.91
2019-02-09T02:28:01.653Z,95094.50
2019-02-09T02:30:34.061Z,95092.75
2019-02-09T02:33:05.018Z,95095.31
2019-02-09T02:35:35.578Z,95094.80
2019-02-09T02:38:06.813Z,95098.31
2019-02-09T02:40:37.832Z,95099.63
2019-02-09T02:43:08.497Z,95102.34
2019-02-09T02:45:38.875Z,95101.20
2019-02-09T02:48:09.302Z,95099.45
2019-02-09T02:50:39.919Z,95098.79
2019-02-09T02:53:10.365Z,95102.16
2019-02-09T02:55:40.690Z,95100.11
2019-02-09T02:58:11.428Z,95096.41
2019-02-09T03:00:42.129Z,95098.79
2019-02-09T03:03:12.509Z,95104.71
2019-02-09T03:05:43.207Z,95097.03
2019-02-09T03:08:14.098Z,95104.05
2019-02-09T03:10:44.419Z,95098.93
2019-02-09T03:13:15.006Z,95098.93
2019-02-09T03:15:45.351Z,95108.19
2019-02-09T03:18:16.116Z,95108.52
2019-02-09T03:20:46.582Z,95100.64
2019-02-09T03:23:16.867Z,95105.44
2019-02-09T03:25:47.651Z,95106.99
2019-02-09T03:28:18.536Z,95104.42
2019-02-09T03:30:49.361Z,95107.45
2019-02-09T03:33:19.930Z,95105.22
2019-02-09T03:35:50.659Z,95103.28
2019-02-09T03:38:20.983Z,95112.56
2019-02-09T03:40:51.349Z,95105.83
2019-02-09T03:43:21.955Z,95112.89
2019-02-09T03:45:52.282Z,95107.41
2019-02-09T03:48:22.607Z,95105.95
2019-02-09T03:50:53.207Z,95113.80
2019-02-09T03:53:23.766Z,95109.66
2019-02-09T03:55:54.048Z,95112.22
2019-02-09T03:58:24.735Z,95107.41
2019-02-09T04:00:56.003Z,95108.48
2019-02-09T04:03:26.305Z,95109.33
2019-02-09T04:05:57.002Z,95108.19
2019-02-09T04:08:27.676Z,95114.46
2019-02-09T04:10:57.954Z,95108.69
2019-02-09T04:13:28.532Z,95109.67
2019-02-09T04:15:59.148Z,95108.79
2019-02-09T04:18:29.640Z,95111.54
2019-02-09T04:21:00.592Z,95109.95
2019-02-09T04:23:31.098Z,95109.94
2019-02-09T04:26:01.861Z,95109.00
2019-02-09T04:28:32.767Z,95108.47
2019-02-09T04:31:05.859Z,95110.88
2019-02-09T04:33:35.291Z,95112.58
2019-02-09T04:36:06.135Z,95114.84
2019-02-09T04:38:36.726Z,95104.41
2019-02-09T04:41:07.011Z,95114.31
2019-02-09T04:43:37.651Z,95108.91
2019-02-09T04:46:08.912Z,95101.38
2019-02-09T04:48:39.168Z,95105.75
2019-02-09T04:51:09.915Z,95112.48
2019-02-09T04:53:40.374Z,95102.40
2019-02-09T04:56:10.996Z,95108.52
2019-02-09T04:58:41.421Z,95108.20
2019-02-09T05:01:14.082Z,95108.88
2019-02-09T05:03:44.127Z,95112.58
2019-02-09T05:06:14.445Z,95109.06
2019-02-09T05:08:44.757Z,95107.80
2019-02-09T05:11:15.410Z,95108.94
2019-02-09T05:13:46.048Z,95110.73
2019-02-09T05:16:16.307Z,95107.84
2019-02-09T05:18:47.185Z,95107.08
2019-02-09T05:21:18.097Z,95109.17
2019-02-09T05:23:48.597Z,95110.45
2019-02-09T05:26:18.832Z,95107.71
2019-02-09T05:28:49.169Z,95109.17
2019-02-09T05:31:23.212Z,95110.46
2019-02-09T05:33:52.289Z,95106.32
2019-02-09T05:36:22.557Z,95108.88
2019-02-09T05:38:53.359Z,95109.55
2019-02-09T05:41:23.742Z,95109.55
2019-02-09T05:43:54.039Z,95110.67
2019-02-09T05:46:24.420Z,95111.83
2019-02-09T05:48:55.047Z,95111.33
2019-02-09T05:51:25.488Z,95115.67
2019-02-09T05:53:55.983Z,95116.95
2019-02-09T05:56:26.269Z,95122.58
2019-02-09T05:58:56.909Z,95119.55
2019-02-09T06:01:32.455Z,95131.41
2019-02-09T06:03:59.737Z,95133.33
2019-02-09T06:06:30.787Z,95130.13
2019-02-09T06:09:01.479Z,95129.48
2019-02-09T06:11:31.983Z,95130.91
2019-02-09T06:14:02.534Z,95129.64
2019-02-09T06:16:33.119Z,95129.80
2019-02-09T06:19:03.430Z,95134.42
2019-02-09T06:21:33.895Z,95133.31
2019-02-09T06:24:04.863Z,95131.55
2019-02-09T06:26:35.451Z,95128.52
2019-02-09T06:29:06.106Z,95127.70
2019-02-09T06:31:40.807Z,95131.66
2019-02-09T06:34:09.574Z,95127.78
2019-02-09T06:36:40.165Z,95126.95
2019-02-09T06:39:10.487Z,95128.52
2019-02-09T06:41:40.770Z,95130.11
2019-02-09T06:44:11.189Z,95132.03
2019-02-09T06:46:42.572Z,95135.70
2019-02-09T06:49:13.004Z,95134.10
2019-02-09T06:51:43.864Z,95126.06
2019-02-09T06:54:14.391Z,95136.91
2019-02-09T06:56:44.698Z,95132.06
2019-02-09T06:59:15.529Z,95130.08
2019-02-09T07:01:48.678Z,95130.69
2019-02-09T07:04:19.370Z,95129.34
2019-02-09T07:06:49.747Z,95132.61
2019-02-09T07:09:20.302Z,95133.63
2019-02-09T07:11:50.963Z,95137.69
2019-02-09T07:14:21.359Z,94864.75
2019-02-09T07:16:51.664Z,95130.66
2019-02-09T07:19:22.356Z,95133.34
2019-02-09T07:21:53.151Z,95131.41
2019-02-09T07:24:23.524Z,95123.05
2019-02-09T07:26:54.248Z,95126.39
2019-02-09T07:29:25.002Z,95132.91
2019-02-09T07:31:56.522Z,95130.69
2019-02-09T07:34:27.053Z,95132.61
2019-02-09T07:36:57.370Z,95131.79
2019-02-09T07:39:27.753Z,95131.36
2019-02-09T07:41:58.077Z,95132.27
2019-02-09T07:44:28.396Z,95136.79
2019-02-09T07:46:59.095Z,95131.24
2019-02-09T07:49:29.834Z,95130.02
2019-02-09T07:52:00.324Z,95130.58
2019-02-09T07:54:30.988Z,95131.09
2019-02-09T07:57:01.628Z,95135.88
2019-02-09T07:59:31.920Z,95136.17
2019-02-09T08:02:04.517Z,95136.47
2019-02-09T08:04:34.955Z,95137.83
2019-02-09T08:07:05.489Z,95131.31
2019-02-09T08:09:35.765Z,95131.25
2019-02-09T08:12:07.571Z,95133.61
2019-02-09T08:14:37.975Z,95136.38
2019-02-09T08:17:08.324Z,95129.09
2019-02-09T08:19:38.949Z,95128.48
2019-02-09T08:22:09.655Z,95119.47
2019-02-09T08:24:39.946Z,95125.06
2019-02-09T08:27:10.544Z,95124.31
2019-02-09T08:29:41.214Z,95124.03
2019-02-09T08:32:13.035Z,95123.91
2019-02-09T08:34:43.515Z,95128.42
2019-02-09T08:37:13.846Z,95122.20
2019-02-09T08:39:44.520Z,95126.54
2019-02-09T08:42:15.941Z,95125.11
2019-02-09T08:44:46.364Z,95129.98
2019-02-09T08:47:17.089Z,95128.30
2019-02-09T08:49:47.862Z,95126.52
2019-02-09T08:52:18.262Z,95128.84
2019-02-09T08:54:48.936Z,95134.28
2019-02-09T08:57:19.571Z,95132.56
2019-02-09T08:59:50.058Z,95129.38
2019-02-09T09:02:20.933Z,95132.02
2019-02-09T09:04:51.321Z,95130.59
2019-02-09T09:07:21.625Z,95128.55
2019-02-09T09:09:52.309Z,95132.77
2019-02-09T09:12:22.594Z,95129.61
2019-02-09T09:14:53.325Z,95130.46
2019-02-09T09:17:24.008Z,95125.38
2019-02-09T09:19:54.274Z,95132.64
2019-02-09T09:22:24.862Z,95122.53
2019-02-09T09:24:55.607Z,95129.70
2019-02-09T09:27:26.264Z,95129.70
2019-02-09T09:29:56.645Z,95134.33
2019-02-09T09:32:28.824Z,95129.19
2019-02-09T09:34:59.227Z,95129.84
2019-02-09T09:37:29.758Z,95118.75
2019-02-09T09:40:00.401Z,95130.98
2019-02-09T09:42:30.856Z,95132.64
2019-02-09T09:45:01.569Z,95124.05
2019-02-09T09:47:31.885Z,95131.43
2019-02-09T09:50:02.187Z,95126.89
2019-02-09T09:52:33.139Z,95115.73
2019-02-09T09:55:03.437Z,95112.98
2019-02-09T09:57:33.726Z,95109.77
2019-02-09T10:00:04.690Z,95101.25
2019-02-09T10:02:36.653Z,95100.57
2019-02-09T10:05:08.387Z,95100.85
2019-02-09T10:07:39.247Z,95102.34
2019-02-09T10:10:12.291Z,95100.36
2019-02-09T10:12:42.680Z,95100.69
2019-02-09T10:15:15.148Z,95101.64
2019-02-09T10:17:45.434Z,95106.65
2019-02-09T10:20:18.572Z,95102.27
2019-02-09T10:22:49.294Z,95095.50
2019-02-09T10:25:20.015Z,95100.23
2019-02-09T10:27:51.180Z,95089.06
2019-02-09T10:30:23.576Z,95085.14
2019-02-09T10:32:53.994Z,95084.45
2019-02-09T10:35:24.924Z,95083.32
2019-02-09T10:37:55.779Z,95085.25
2019-02-09T10:40:28.294Z,95081.28
2019-02-09T10:42:59.302Z,95085.00
2019-02-09T10:45:30.538Z,95079.30
2019-02-09T10:48:01.583Z,95079.66
2019-02-09T10:50:41.342Z,95075.66
2019-02-09T10:53:11.869Z,95072.00
2019-02-09T10:55:42.806Z,95066.06
2019-02-09T10:58:13.424Z,95070.47
2019-02-09T11:00:52.665Z,95061.71
2019-02-09T11:03:23.433Z,95053.92
2019-02-09T11:05:54.269Z,95048.86
2019-02-09T11:08:24.858Z,95051.34
2019-02-09T11:10:55.164Z,95046.30
2019-02-09T11:13:25.783Z,95043.92
2019-02-09T11:15:56.110Z,95039.83
2019-02-09T11:18:26.540Z,95028.20
2019-02-09T11:20:56.871Z,95032.27
2019-02-09T11:23:27.719Z,95029.31
2019-02-09T11:25:58.433Z,95023.08
2019-02-09T11:28:28.824Z,95033.45
2019-02-09T11:30:59.125Z,95029.81
2019-02-09T11:33:29.987Z,95026.98
2019-02-09T11:36:00.275Z,95023.04
2019-02-09T11:38:30.605Z,95024.66
2019-02-09T11:41:01.267Z,95022.58
2019-02-09T11:43:31.905Z,95010.03
2019-02-09T11:46:02.188Z,95019.59
2019-02-09T11:48:32.811Z,95011.45
2019-02-09T11:51:03.125Z,94996.11
2019-02-09T11:53:33.733Z,94994.64
2019-02-09T11:56:04.235Z,94992.86
2019-02-09T11:58:34.567Z,94988.02
2019-02-09T12:01:06.419Z,94996.69
2019-02-09T12:03:37.674Z,94988.22
2019-02-09T12:06:08.321Z,94984.38
2019-02-09T12:08:39.315Z,94989.74
2019-02-09T12:11:10.066Z,94984.34
2019-02-09T12:13:40.404Z,94980.42
2019-02-09T12:16:11.029Z,94975.08
2019-02-09T12:18:41.598Z,94970.72
2019-02-09T12:21:11.900Z,94973.67
2019-02-09T12:23:42.688Z,94973.05
2019-02-09T12:26:13.064Z,94966.52
2019-02-09T12:28:43.550Z,94957.27
2019-02-09T12:31:13.853Z,94963.42
2019-02-09T12:33:44.389Z,94952.16
2019-02-09T12:36:14.726Z,94956.20
2019-02-09T12:38:45.027Z,94949.08
2019-02-09T12:41:15.726Z,94948.23
2019-02-09T12:43:46.246Z,94947.06
2019-02-09T12:46:16.567Z,94940.36
2019-02-09T12:48:47.266Z,94944.45
2019-02-09T12:51:17.940Z,94945.56
2019-02-09T12:53:48.325Z,94943.36
2019-02-09T12:56:19.758Z,94935.80
2019-02-09T12:58:50.066Z,94942.51
2019-02-09T13:01:20.867Z,94939.09
2019-02-09T13:03:51.321Z,94935.91
2019-02-09T13:06:21.657Z,94931.33
2019-02-09T13:08:52.423Z,94931.13
2019-02-09T13:11:23.246Z,94925.69
2019-02-09T13:13:53.527Z,94932.97
2019-02-09T13:16:24.357Z,94931.45
2019-02-09T13:18:55.060Z,94930.66
2019-02-09T13:21:25.655Z,94924.44
2019-02-09T13:23:56.128Z,94925.91
2019-02-09T13:26:26.823Z,94924.94
2019-02-09T13:28:57.525Z,94919.36
2019-02-09T13:31:28.175Z,94916.53
2019-02-09T13:33:58.557Z,94926.44
2019-02-09T13:36:29.231Z,94913.55
2019-02-09T13:38:59.999Z,94910.98
2019-02-09T13:41:30.678Z,94916.42
2019-02-09T13:44:01.249Z,94910.48
2019-02-09T13:46:31.951Z,94917.29
2019-02-09T13:49:02.342Z,94916.77
2019-02-09T13:51:32.731Z,94931.02
2019-02-09T13:54:03.876Z,94907.81
2019-02-09T13:56:34.156Z,94905.05
2019-02-09T13:59:05.397Z,94903.23
2019-02-09T14:01:35.759Z,94900.92
2019-02-09T14:04:06.342Z,94905.38
2019-02-09T14:06:36.900Z,94896.55
2019-02-09T14:09:08.743Z,94895.77
2019-02-09T14:11:40.136Z,94902.66
2019-02-09T14:14:10.684Z,94905.59
2019-02-09T14:16:41.091Z,94906.08
2019-02-09T14:19:11.670Z,94906.52
2019-02-09T14:21:42.267Z,94907.64
2019-02-09T14:24:12.935Z,94906.45
2019-02-09T14:26:43.329Z,94913.09
2019-02-09T14:29:14.214Z,94905.29
2019-02-09T14:31:44.525Z,94907.76
2019-02-09T14:34:15.347Z,94907.95
2019-02-09T14:36:45.653Z,94908.93
2019-02-09T14:39:15.991Z,94908.91
2019-02-09T14:41:46.537Z,94904.67
2019-02-09T14:44:17.059Z,94909.69
2019-02-09T14:46:47.379Z,94901.94
2019-02-09T14:49:18.129Z,94911.44
2019-02-09T14:51:48.756Z,94918.83
2019-02-09T14:54:19.179Z,94918.63
2019-02-09T14:56:49.709Z,94909.83
2019-02-09T14:59:20.395Z,94915.85
2019-02-09T15:01:50.806Z,94908.96
2019-02-09T15:04:21.389Z,94919.05
2019-02-09T15:06:52.471Z,94907.53
2019-02-09T15:09:24.356Z,94907.86
2019-02-09T15:11:55.131Z,94905.73
2019-02-09T15:14:25.548Z,94904.83
2019-02-09T15:16:56.991Z,94906.59
2019-02-09T15:19:36.430Z,94908.16
2019-02-09T15:22:07.399Z,94908.52
2019-02-09T15:24:37.933Z,94917.17
2019-02-09T15:27:08.523Z,94908.70
2019-02-09T15:29:39.035Z,94916.90
2019-02-09T15:32:09.325Z,94921.71
2019-02-09T15:34:39.889Z,94919.56
2019-02-09T15:37:10.534Z,94919.80
2019-02-09T15:39:41.204Z,94918.73
2019-02-09T15:42:11.490Z,94923.54
2019-02-09T15:44:41.977Z,94926.30
2019-02-09T15:47:12.662Z,94933.26
2019-02-09T15:49:42.996Z,94938.66
2019-02-09T15:52:13.433Z,94937.18
2019-02-09T15:54:44.099Z,94948.34
2019-02-09T15:57:14.381Z,94957.23
2019-02-09T15:59:45.023Z,94960.34
2019-02-09T16:02:15.741Z,94967.00
2019-02-09T16:04:46.091Z,94972.69
2019-02-09T16:07:16.733Z,94970.95
2019-02-09T16:09:47.045Z,94974.47
2019-02-09T16:12:17.330Z,94982.95
2019-02-09T16:14:48.154Z,94985.39
2019-02-09T16:17:18.506Z,94989.62
2019-02-09T16:19:48.923Z,94991.38
2019-02-09T16:22:19.587Z,94984.63
2019-02-09T16:24:50.481Z,94989.67
2019-02-09T16:27:20.762Z,94990.09
2019-02-09T16:29:51.571Z,94987.91
2019-02-09T16:32:22.203Z,94989.41
2019-02-09T16:34:52.634Z,94989.16
2019-02-09T16:37:23.381Z,94992.59
2019-02-09T16:39:53.979Z,94995.73
2019-02-09T16:42:24.396Z,94988.05
2019-02-09T16:44:54.825Z,94987.80
2019-02-09T16:47:25.497Z,94996.13
2019-02-09T16:49:56.153Z,94991.52
2019-02-09T16:52:26.527Z,94992.55
2019-02-09T16:54:57.176Z,94990.90
2019-02-09T16:57:27.488Z,94982.29
2019-02-09T16:59:57.849Z,94979.16
2019-02-09T17:02:28.513Z,94984.02
2019-02-09T17:04:59.266Z,94990.42
2019-02-09T17:07:29.537Z,94991.24
2019-02-09T17:10:00.463Z,94987.50
2019-02-09T17:12:30.751Z,94982.70
2019-02-09T17:15:01.551Z,94988.52
2019-02-09T17:17:32.017Z,94992.42
2019-02-09T17:20:02.545Z,94992.42
2019-02-09T17:22:33.309Z,94987.38
2019-02-09T17:25:03.859Z,94989.80
2019-02-09T17:27:34.144Z,94988.55
2019-02-09T17:30:06.777Z,94989.67
2019-02-09T17:32:37.358Z,94996.26
2019-02-09T17:35:08.474Z,95003.73
2019-02-09T17:37:39.255Z,95004.21
2019-02-09T17:40:12.146Z,95004.64
2019-02-09T17:42:42.563Z,95010.39
2019-02-09T17:45:16.359Z,95008.02
2019-02-09T17:47:47.819Z,95014.16
2019-02-09T17:50:18.496Z,95013.34
2019-02-09T17:52:48.878Z,95015.77
2019-02-09T17:55:19.766Z,95016.02
2019-02-09T17:57:50.457Z,95014.25
2019-02-09T18:00:26.925Z,95020.52
2019-02-09T18:02:57.237Z,95027.47
2019-02-09T18:05:27.617Z,95025.78
2019-02-09T18:07:58.418Z,95029.49
2019-02-09T18:10:28.752Z,95032.20
2019-02-09T18:12:59.040Z,95026.63
2019-02-09T18:15:29.499Z,95031.44
2019-02-09T18:18:00.128Z,95036.14
2019-02-09T18:20:30.667Z,95040.98
2019-02-09T18:23:00.944Z,95038.41
2019-02-09T18:25:31.309Z,95035.43
2019-02-09T18:28:01.838Z,95034.31
2019-02-09T18:30:32.367Z,95040.20
2019-02-09T18:33:02.655Z,95039.35
2019-02-09T18:35:33.627Z,95043.92
2019-02-09T18:38:04.096Z,95035.74
2019-02-09T18:40:34.448Z,95041.41
2019-02-09T18:43:05.334Z,95054.86
2019-02-09T18:45:35.814Z,95048.41
2019-02-09T18:48:06.886Z,95050.64
2019-02-09T18:50:37.257Z,95053.37
2019-02-09T18:53:07.647Z,95058.95
2019-02-09T18:55:38.426Z,95064.88
2019-02-09T18:58:08.766Z,95057.38
2019-02-09T19:00:39.364Z,95057.70
2019-02-09T19:03:10.466Z,95061.63
2019-02-09T19:05:41.034Z,95059.71
2019-02-09T19:08:11.528Z,95055.34
2019-02-09T19:10:42.205Z,95057.59
2019-02-09T19:13:12.802Z,95045.70
2019-02-09T19:15:43.209Z,95049.59
2019-02-09T19:18:13.578Z,95047.50
2019-02-09T19:20:47.104Z,95052.70
2019-02-09T19:23:17.902Z,95046.46
2019-02-09T19:25:48.870Z,95041.42
2019-02-09T19:28:19.198Z,95037.91
2019-02-09T19:30:49.827Z,95035.84
2019-02-09T19:33:20.410Z,95036.16
2019-02-09T19:35:51.039Z,95037.09
2019-02-09T19:38:21.693Z,95040.16
2019-02-09T19:40:52.368Z,95039.84
2019-02-09T19:43:22.681Z,95038.92
2019-02-09T19:45:53.128Z,95035.94
2019-02-09T19:48:23.821Z,95034.94
2019-02-09T19:50:54.143Z,95040.23
2019-02-09T19:53:24.875Z,95039.27
2019-02-09T19:55:55.266Z,95045.24
2019-02-09T19:58:26.014Z,95042.08
2019-02-09T20:00:56.902Z,95039.17
2019-02-09T20:03:27.212Z,95046.78
2019-02-09T20:05:57.761Z,95046.92
2019-02-09T20:08:28.495Z,95047.45
2019-02-09T20:10:58.821Z,95050.55
2019-02-09T20:13:29.120Z,95053.91
2019-02-09T20:16:00.168Z,95058.25
2019-02-09T20:18:30.442Z,95055.83
2019-02-09T20:21:00.790Z,95059.98
2019-02-09T20:23:31.520Z,95059.67
2019-02-09T20:26:02.143Z,95066.86
2019-02-09T20:28:32.723Z,95067.52
2019-02-09T20:31:04.234Z,95075.84
2019-02-09T20:33:34.531Z,95071.05
2019-02-09T20:36:05.676Z,95075.22
2019-02-09T20:38:35.962Z,95072.84
2019-02-09T20:41:07.951Z,95069.61
2019-02-09T20:43:39.869Z,95074.27
2019-02-09T20:46:10.287Z,95079.91
2019-02-09T20:48:40.554Z,95088.55
2019-02-09T20:51:11.040Z,95087.45
2019-02-09T20:53:41.779Z,95089.28
2019-02-09T20:56:12.175Z,95099.66
2019-02-09T20:58:43.040Z,95102.93
2019-02-09T21:01:13.706Z,95098.22
2019-02-09T21:03:44.043Z,95104.53
2019-02-09T21:06:14.439Z,95107.16
2019-02-09T21:08:45.117Z,95101.16
2019-02-09T21:11:15.427Z,95116.83
2019-02-09T21:13:45.754Z,95114.52
2019-02-09T21:16:16.367Z,95112.91
2019-02-09T21:18:46.965Z,95106.03
2019-02-09T21:21:17.252Z,95097.67
2019-02-09T21:23:47.996Z,95105.06
2019-02-09T21:26:18.531Z,95105.05
2019-02-09T21:28:49.355Z,95107.78
2019-02-09T21:31:19.633Z,95114.59
2019-02-09T21:33:49.983Z,95118.64
2019-02-09T21:36:20.600Z,95103.59
2019-02-09T21:38:51.299Z,95112.42
2019-02-09T21:41:21.585Z,95106.97
2019-02-09T21:43:52.458Z,95109.83
2019-02-09T21:46:22.779Z,95102.16
2019-02-09T21:48:53.121Z,95112.48
2019-02-09T21:51:23.847Z,95103.45
2019-02-09T21:53:54.546Z,95111.09
2019-02-09T21:56:24.924Z,95103.41
2019-02-09T21:58:55.503Z,95102.36
2019-02-09T22:01:25.776Z,95092.11
2019-02-09T22:03:56.694Z,95081.73
2019-02-09T22:06:27.256Z,95077.33
2019-02-09T22:08:57.828Z,95080.50
2019-02-09T22:11:28.395Z,95085.28
2019-02-09T22:13:58.937Z,95089.70
2019-02-09T22:16:29.222Z,95084.17
2019-02-09T22:19:00.073Z,95088.73
2019-02-09T22:21:30.857Z,95089.70
2019-02-09T22:24:01.364Z,95098.77
2019-02-09T22:26:32.125Z,95088.44
2019-02-09T22:29:03.054Z,95095.05
2019-02-09T22:31:33.332Z,95081.02
2019-02-09T22:34:04.382Z,95085.63
2019-02-09T22:36:37.236Z,95088.12
2019-02-09T22:39:09.220Z,95084.42
2019-02-09T22:41:39.601Z,95077.27
2019-02-09T22:44:09.922Z,95075.06
2019-02-09T22:46:40.356Z,95073.75
2019-02-09T22:49:14.046Z,95070.59
2019-02-09T22:51:44.359Z,95088.84
2019-02-09T22:54:14.691Z,95092.39
2019-02-09T22:56:45.272Z,95104.68
2019-02-09T22:59:15.556Z,95096.81
2019-02-09T23:01:51.083Z,95089.97
2019-02-09T23:05:05.347Z,95105.92
2019-02-09T23:07:36.079Z,95101.86
2019-02-09T23:10:10.792Z,95098.13
2019-02-09T23:12:48.345Z,95099.25
2019-02-09T23:15:13.264Z,95111.47
2019-02-09T23:17:43.794Z,95112.84
2019-02-09T23:20:14.583Z,95115.48
2019-02-09T23:22:45.255Z,95113.13
2019-02-09T23:25:15.534Z,95081.25
2019-02-09T23:27:45.967Z,95117.13
2019-02-09T23:30:16.771Z,95115.37
2019-02-09T23:32:47.120Z,95115.68
2019-02-09T23:35:17.410Z,95116.65
2019-02-09T23:37:47.980Z,95110.39
2019-02-09T23:40:18.526Z,95118.90
2019-02-09T23:42:50.324Z,95118.90
2019-02-09T23:45:20.624Z,95113.44
2019-02-09T23:47:51.373Z,95110.88
2019-02-09T23:50:22.173Z,95112.14
2019-02-09T23:52:52.520Z,95115.99
2019-02-09T23:55:22.799Z,95118.88
2019-02-09T23:57:53.495Z,95118.09
